sensor_id;sensor_type;location;lat;lon;timestamp;P1;durP1;ratioP1;P2;durP2;ratioP2
64799;SDS011;51233;51.982;4.594;2024-03-23T00:54:31;10.00;;;2.67;;
64799;SDS011;51233;51.982;4.594;2024-03-23T00:57:31;11.25;;;2.45;;
64799;SDS011;51233;51.982;4.594;2024-03-23T01:00:32;8.73;;;2.30;;
64799;SDS011;51233;51.982;4.594;2024-03-23T01:03:32;15.00;;;2.77;;
64799;SDS011;51233;51.982;4.594;2024-03-23T01:06:32;11.50;;;2.50;;
64799;SDS011;51233;51.982;4.594;2024-03-23T01:09:32;8.52;;;2.80;;
64799;SDS011;51233;51.982;4.594;2024-03-23T01:12:33;6.97;;;2.38;;
64799;SDS011;51233;51.982;4.594;2024-03-23T01:15:33;8.20;;;2.83;;
64799;SDS011;51233;51.982;4.594;2024-03-23T01:18:33;10.85;;;2.50;;
64799;SDS011;51233;51.982;4.594;2024-03-23T01:21:33;11.13;;;2.60;;
64799;SDS011;51233;51.982;4.594;2024-03-23T01:24:34;9.45;;;2.85;;
64799;SDS011;51233;51.982;4.594;2024-03-23T01:27:34;5.63;;;1.90;;
64799;SDS011;51233;51.982;4.594;2024-03-23T01:30:34;12.70;;;3.57;;
64799;SDS011;51233;51.982;4.594;2024-03-23T01:33:35;11.90;;;3.20;;
64799;SDS011;51233;51.982;4.594;2024-03-23T01:36:35;8.43;;;2.50;;
64799;SDS011;51233;51.982;4.594;2024-03-23T01:39:35;11.07;;;2.30;;
64799;SDS011;51233;51.982;4.594;2024-03-23T01:42:36;10.63;;;3.13;;
64799;SDS011;51233;51.982;4.594;2024-03-23T01:45:36;9.45;;;2.33;;
64799;SDS011;51233;51.982;4.594;2024-03-23T01:48:36;13.87;;;2.50;;
64799;SDS011;51233;51.982;4.594;2024-03-23T01:51:36;11.60;;;2.22;;
64799;SDS011;51233;51.982;4.594;2024-03-23T01:54:37;6.30;;;2.17;;
64799;SDS011;51233;51.982;4.594;2024-03-23T01:57:38;6.37;;;2.17;;
64799;SDS011;51233;51.982;4.594;2024-03-23T02:00:38;11.57;;;2.58;;
64799;SDS011;51233;51.982;4.594;2024-03-23T02:03:38;8.55;;;2.17;;
64799;SDS011;51233;51.982;4.594;2024-03-23T02:06:39;9.00;;;2.03;;
64799;SDS011;51233;51.982;4.594;2024-03-23T02:09:39;7.07;;;1.90;;
64799;SDS011;51233;51.982;4.594;2024-03-23T02:12:39;11.32;;;2.38;;
64799;SDS011;51233;51.982;4.594;2024-03-23T02:15:39;7.67;;;2.10;;
64799;SDS011;51233;51.982;4.594;2024-03-23T02:18:39;7.27;;;1.90;;
64799;SDS011;51233;51.982;4.594;2024-03-23T02:21:40;9.77;;;1.93;;
64799;SDS011;51233;51.982;4.594;2024-03-23T02:24:40;7.43;;;1.77;;
64799;SDS011;51233;51.982;4.594;2024-03-23T02:27:40;7.50;;;1.98;;
64799;SDS011;51233;51.982;4.594;2024-03-23T02:30:40;8.20;;;1.95;;
64799;SDS011;51233;51.982;4.594;2024-03-23T02:33:40;8.90;;;2.42;;
64799;SDS011;51233;51.982;4.594;2024-03-23T02:36:41;9.87;;;2.13;;
64799;SDS011;51233;51.982;4.594;2024-03-23T02:39:41;10.50;;;2.00;;
64799;SDS011;51233;51.982;4.594;2024-03-23T02:42:41;9.13;;;2.03;;
64799;SDS011;51233;51.982;4.594;2024-03-23T02:45:41;10.85;;;2.50;;
64799;SDS011;51233;51.982;4.594;2024-03-23T02:48:42;8.67;;;2.23;;
64799;SDS011;51233;51.982;4.594;2024-03-23T02:51:42;8.30;;;2.13;;
64799;SDS011;51233;51.982;4.594;2024-03-23T02:54:45;15.82;;;2.75;;
64799;SDS011;51233;51.982;4.594;2024-03-23T02:57:45;9.48;;;2.65;;
64799;SDS011;51233;51.982;4.594;2024-03-23T03:00:45;11.00;;;2.22;;
64799;SDS011;51233;51.982;4.594;2024-03-23T03:03:45;13.57;;;2.60;;
64799;SDS011;51233;51.982;4.594;2024-03-23T03:06:49;8.25;;;2.10;;
64799;SDS011;51233;51.982;4.594;2024-03-23T03:09:49;7.03;;;1.88;;
64799;SDS011;51233;51.982;4.594;2024-03-23T03:12:49;10.63;;;2.30;;
64799;SDS011;51233;51.982;4.594;2024-03-23T03:15:49;12.18;;;2.53;;
64799;SDS011;51233;51.982;4.594;2024-03-23T03:18:49;6.70;;;1.88;;
64799;SDS011;51233;51.982;4.594;2024-03-23T03:21:50;7.94;;;1.90;;
64799;SDS011;51233;51.982;4.594;2024-03-23T03:24:50;11.57;;;2.58;;
64799;SDS011;51233;51.982;4.594;2024-03-23T03:27:50;11.00;;;2.50;;
64799;SDS011;51233;51.982;4.594;2024-03-23T03:30:50;8.27;;;1.60;;
64799;SDS011;51233;51.982;4.594;2024-03-23T03:33:50;8.63;;;2.20;;
64799;SDS011;51233;51.982;4.594;2024-03-23T03:36:51;10.23;;;1.92;;
64799;SDS011;51233;51.982;4.594;2024-03-23T03:39:51;13.68;;;2.60;;
64799;SDS011;51233;51.982;4.594;2024-03-23T03:42:51;12.60;;;2.03;;
64799;SDS011;51233;51.982;4.594;2024-03-23T03:45:52;9.88;;;1.83;;
64799;SDS011;51233;51.982;4.594;2024-03-23T03:48:53;5.73;;;1.73;;
64799;SDS011;51233;51.982;4.594;2024-03-23T03:51:54;11.25;;;2.20;;
64799;SDS011;51233;51.982;4.594;2024-03-23T03:55:01;7.67;;;2.27;;
64799;SDS011;51233;51.982;4.594;2024-03-23T03:58:02;6.43;;;2.13;;
64799;SDS011;51233;51.982;4.594;2024-03-23T04:01:02;6.77;;;1.67;;
64799;SDS011;51233;51.982;4.594;2024-03-23T04:04:03;7.03;;;1.90;;
64799;SDS011;51233;51.982;4.594;2024-03-23T04:07:03;10.13;;;2.20;;
64799;SDS011;51233;51.982;4.594;2024-03-23T04:10:05;7.15;;;1.98;;
64799;SDS011;51233;51.982;4.594;2024-03-23T04:13:07;3.92;;;1.73;;
64799;SDS011;51233;51.982;4.594;2024-03-23T04:16:07;5.17;;;1.90;;
64799;SDS011;51233;51.982;4.594;2024-03-23T04:19:09;4.55;;;1.52;;
64799;SDS011;51233;51.982;4.594;2024-03-23T04:22:09;5.13;;;1.50;;
64799;SDS011;51233;51.982;4.594;2024-03-23T04:25:09;7.13;;;2.03;;
64799;SDS011;51233;51.982;4.594;2024-03-23T04:28:10;5.27;;;1.60;;
64799;SDS011;51233;51.982;4.594;2024-03-23T04:31:10;6.93;;;2.20;;
64799;SDS011;51233;51.982;4.594;2024-03-23T04:34:11;6.27;;;1.80;;
64799;SDS011;51233;51.982;4.594;2024-03-23T04:37:11;7.93;;;1.77;;
64799;SDS011;51233;51.982;4.594;2024-03-23T04:40:11;9.18;;;2.00;;
64799;SDS011;51233;51.982;4.594;2024-03-23T04:43:11;6.17;;;1.70;;
64799;SDS011;51233;51.982;4.594;2024-03-23T04:46:12;9.50;;;1.80;;
64799;SDS011;51233;51.982;4.594;2024-03-23T04:49:12;9.27;;;1.97;;
64799;SDS011;51233;51.982;4.594;2024-03-23T04:52:12;4.43;;;1.83;;
64799;SDS011;51233;51.982;4.594;2024-03-23T04:55:12;8.80;;;2.42;;
64799;SDS011;51233;51.982;4.594;2024-03-23T04:58:14;7.57;;;2.05;;
64799;SDS011;51233;51.982;4.594;2024-03-23T05:01:14;12.23;;;1.92;;
64799;SDS011;51233;51.982;4.594;2024-03-23T05:04:14;6.33;;;2.00;;
64799;SDS011;51233;51.982;4.594;2024-03-23T05:07:14;8.86;;;2.48;;
64799;SDS011;51233;51.982;4.594;2024-03-23T05:10:14;13.38;;;2.58;;
64799;SDS011;51233;51.982;4.594;2024-03-23T05:13:15;5.87;;;2.20;;
64799;SDS011;51233;51.982;4.594;2024-03-23T05:16:15;9.13;;;2.07;;
64799;SDS011;51233;51.982;4.594;2024-03-23T05:19:16;10.70;;;2.20;;
64799;SDS011;51233;51.982;4.594;2024-03-23T05:22:16;10.88;;;2.28;;
64799;SDS011;51233;51.982;4.594;2024-03-23T05:25:16;8.93;;;2.33;;
64799;SDS011;51233;51.982;4.594;2024-03-23T05:28:16;12.65;;;2.55;;
64799;SDS011;51233;51.982;4.594;2024-03-23T05:31:26;6.00;;;1.95;;
64799;SDS011;51233;51.982;4.594;2024-03-23T05:34:27;7.00;;;2.53;;
64799;SDS011;51233;51.982;4.594;2024-03-23T05:37:28;9.23;;;3.08;;
64799;SDS011;51233;51.982;4.594;2024-03-23T05:40:31;7.03;;;2.45;;
64799;SDS011;51233;51.982;4.594;2024-03-23T05:43:31;9.30;;;2.50;;
64799;SDS011;51233;51.982;4.594;2024-03-23T05:46:31;13.50;;;2.45;;
64799;SDS011;51233;51.982;4.594;2024-03-23T05:49:32;10.43;;;2.65;;
64799;SDS011;51233;51.982;4.594;2024-03-23T05:52:32;10.53;;;2.20;;
64799;SDS011;51233;51.982;4.594;2024-03-23T05:55:32;11.93;;;2.80;;
64799;SDS011;51233;51.982;4.594;2024-03-23T05:58:32;12.70;;;2.63;;
64799;SDS011;51233;51.982;4.594;2024-03-23T06:01:33;11.50;;;2.92;;
64799;SDS011;51233;51.982;4.594;2024-03-23T06:04:33;7.78;;;2.30;;
64799;SDS011;51233;51.982;4.594;2024-03-23T06:07:33;4.13;;;1.07;;
64799;SDS011;51233;51.982;4.594;2024-03-23T06:10:33;7.65;;;1.95;;
64799;SDS011;51233;51.982;4.594;2024-03-23T06:13:34;8.23;;;2.33;;
64799;SDS011;51233;51.982;4.594;2024-03-23T06:16:35;4.77;;;1.57;;
64799;SDS011;51233;51.982;4.594;2024-03-23T06:19:35;6.17;;;1.80;;
64799;SDS011;51233;51.982;4.594;2024-03-23T06:22:35;7.35;;;2.40;;
64799;SDS011;51233;51.982;4.594;2024-03-23T06:25:35;7.23;;;2.10;;
64799;SDS011;51233;51.982;4.594;2024-03-23T06:28:36;6.35;;;1.95;;
64799;SDS011;51233;51.982;4.594;2024-03-23T06:31:36;8.50;;;2.70;;
64799;SDS011;51233;51.982;4.594;2024-03-23T06:34:36;7.63;;;1.97;;
64799;SDS011;51233;51.982;4.594;2024-03-23T06:37:36;13.88;;;2.53;;
64799;SDS011;51233;51.982;4.594;2024-03-23T06:40:37;9.87;;;1.77;;
64799;SDS011;51233;51.982;4.594;2024-03-23T06:43:37;5.72;;;1.50;;
64799;SDS011;51233;51.982;4.594;2024-03-23T06:46:37;5.78;;;2.05;;
64799;SDS011;51233;51.982;4.594;2024-03-23T06:49:37;7.17;;;1.63;;
64799;SDS011;51233;51.982;4.594;2024-03-23T06:52:37;8.05;;;1.63;;
64799;SDS011;51233;51.982;4.594;2024-03-23T06:55:38;5.60;;;1.70;;
64799;SDS011;51233;51.982;4.594;2024-03-23T06:58:38;4.00;;;1.45;;
64799;SDS011;51233;51.982;4.594;2024-03-23T07:01:38;7.05;;;1.88;;
64799;SDS011;51233;51.982;4.594;2024-03-23T07:04:39;6.18;;;2.05;;
64799;SDS011;51233;51.982;4.594;2024-03-23T07:07:40;6.93;;;1.90;;
64799;SDS011;51233;51.982;4.594;2024-03-23T07:10:40;3.63;;;1.45;;
64799;SDS011;51233;51.982;4.594;2024-03-23T07:13:40;7.00;;;1.92;;
64799;SDS011;51233;51.982;4.594;2024-03-23T07:16:40;6.32;;;1.52;;
64799;SDS011;51233;51.982;4.594;2024-03-23T07:19:40;7.40;;;1.43;;
64799;SDS011;51233;51.982;4.594;2024-03-23T07:22:40;7.07;;;1.80;;
64799;SDS011;51233;51.982;4.594;2024-03-23T07:25:41;8.45;;;1.58;;
64799;SDS011;51233;51.982;4.594;2024-03-23T07:28:43;10.25;;;2.15;;
64799;SDS011;51233;51.982;4.594;2024-03-23T07:31:44;9.98;;;1.88;;
64799;SDS011;51233;51.982;4.594;2024-03-23T07:34:44;7.95;;;2.65;;
64799;SDS011;51233;51.982;4.594;2024-03-23T07:37:45;10.05;;;2.30;;
64799;SDS011;51233;51.982;4.594;2024-03-23T07:40:45;9.17;;;2.17;;
64799;SDS011;51233;51.982;4.594;2024-03-23T07:43:45;6.47;;;2.10;;
64799;SDS011;51233;51.982;4.594;2024-03-23T07:46:46;5.87;;;1.20;;
64799;SDS011;51233;51.982;4.594;2024-03-23T07:49:47;5.90;;;1.73;;
64799;SDS011;51233;51.982;4.594;2024-03-23T07:52:47;5.60;;;1.23;;
64799;SDS011;51233;51.982;4.594;2024-03-23T07:56:00;2.80;;;1.20;;
64799;SDS011;51233;51.982;4.594;2024-03-23T07:59:00;5.90;;;1.77;;
64799;SDS011;51233;51.982;4.594;2024-03-23T08:02:03;7.93;;;2.40;;
64799;SDS011;51233;51.982;4.594;2024-03-23T08:05:03;9.88;;;2.78;;
64799;SDS011;51233;51.982;4.594;2024-03-23T08:08:04;6.43;;;2.05;;
64799;SDS011;51233;51.982;4.594;2024-03-23T08:11:04;8.10;;;2.05;;
64799;SDS011;51233;51.982;4.594;2024-03-23T08:14:04;9.38;;;2.17;;
64799;SDS011;51233;51.982;4.594;2024-03-23T08:17:05;9.32;;;2.65;;
64799;SDS011;51233;51.982;4.594;2024-03-23T08:20:06;8.33;;;2.20;;
64799;SDS011;51233;51.982;4.594;2024-03-23T08:23:08;9.25;;;2.45;;
64799;SDS011;51233;51.982;4.594;2024-03-23T08:26:12;5.23;;;1.63;;
64799;SDS011;51233;51.982;4.594;2024-03-23T08:29:13;15.07;;;2.28;;
64799;SDS011;51233;51.982;4.594;2024-03-23T08:32:13;8.07;;;1.90;;
64799;SDS011;51233;51.982;4.594;2024-03-23T08:35:13;10.00;;;2.47;;
64799;SDS011;51233;51.982;4.594;2024-03-23T08:38:13;7.50;;;2.40;;
64799;SDS011;51233;51.982;4.594;2024-03-23T08:41:13;5.32;;;1.85;;
64799;SDS011;51233;51.982;4.594;2024-03-23T08:44:14;9.20;;;1.83;;
64799;SDS011;51233;51.982;4.594;2024-03-23T08:47:14;8.20;;;1.92;;
64799;SDS011;51233;51.982;4.594;2024-03-23T08:50:14;5.63;;;1.30;;
64799;SDS011;51233;51.982;4.594;2024-03-23T08:53:14;5.90;;;1.98;;
64799;SDS011;51233;51.982;4.594;2024-03-23T08:56:15;5.23;;;1.40;;
64799;SDS011;51233;51.982;4.594;2024-03-23T08:59:16;5.30;;;1.90;;
64799;SDS011;51233;51.982;4.594;2024-03-23T09:02:16;5.60;;;1.77;;
64799;SDS011;51233;51.982;4.594;2024-03-23T09:05:16;9.57;;;2.27;;
64799;SDS011;51233;51.982;4.594;2024-03-23T09:08:16;5.85;;;2.00;;
64799;SDS011;51233;51.982;4.594;2024-03-23T09:11:16;7.30;;;2.03;;
64799;SDS011;51233;51.982;4.594;2024-03-23T09:14:16;8.15;;;2.00;;
64799;SDS011;51233;51.982;4.594;2024-03-23T09:17:17;8.80;;;2.15;;
64799;SDS011;51233;51.982;4.594;2024-03-23T09:20:18;7.35;;;1.77;;
64799;SDS011;51233;51.982;4.594;2024-03-23T09:23:18;8.00;;;2.47;;
64799;SDS011;51233;51.982;4.594;2024-03-23T09:26:19;7.43;;;1.90;;
64799;SDS011;51233;51.982;4.594;2024-03-23T09:29:19;7.90;;;1.80;;
64799;SDS011;51233;51.982;4.594;2024-03-23T09:32:19;6.47;;;1.87;;
64799;SDS011;51233;51.982;4.594;2024-03-23T09:35:19;9.13;;;2.60;;
64799;SDS011;51233;51.982;4.594;2024-03-23T09:38:20;11.85;;;2.75;;
64799;SDS011;51233;51.982;4.594;2024-03-23T09:41:20;10.23;;;2.27;;
64799;SDS011;51233;51.982;4.594;2024-03-23T09:44:20;10.57;;;2.43;;
64799;SDS011;51233;51.982;4.594;2024-03-23T09:47:20;6.53;;;1.90;;
64799;SDS011;51233;51.982;4.594;2024-03-23T09:50:20;8.23;;;2.40;;
64799;SDS011;51233;51.982;4.594;2024-03-23T09:53:21;6.43;;;2.00;;
64799;SDS011;51233;51.982;4.594;2024-03-23T09:56:22;7.28;;;1.98;;
64799;SDS011;51233;51.982;4.594;2024-03-23T09:59:23;6.17;;;1.50;;
64799;SDS011;51233;51.982;4.594;2024-03-23T10:02:26;7.10;;;1.70;;
64799;SDS011;51233;51.982;4.594;2024-03-23T10:05:28;9.15;;;2.47;;
64799;SDS011;51233;51.982;4.594;2024-03-23T10:08:29;8.82;;;2.15;;
64799;SDS011;51233;51.982;4.594;2024-03-23T10:11:30;7.15;;;1.98;;
64799;SDS011;51233;51.982;4.594;2024-03-23T10:14:31;8.93;;;2.30;;
64799;SDS011;51233;51.982;4.594;2024-03-23T10:17:31;8.03;;;1.80;;
64799;SDS011;51233;51.982;4.594;2024-03-23T10:20:31;7.45;;;2.13;;
64799;SDS011;51233;51.982;4.594;2024-03-23T10:23:32;8.37;;;2.37;;
64799;SDS011;51233;51.982;4.594;2024-03-23T10:26:32;7.87;;;2.17;;
64799;SDS011;51233;51.982;4.594;2024-03-23T10:29:32;11.63;;;2.73;;
64799;SDS011;51233;51.982;4.594;2024-03-23T10:32:33;6.93;;;2.00;;
64799;SDS011;51233;51.982;4.594;2024-03-23T10:35:33;13.17;;;2.90;;
64799;SDS011;51233;51.982;4.594;2024-03-23T10:38:34;7.13;;;2.20;;
64799;SDS011;51233;51.982;4.594;2024-03-23T10:41:34;7.87;;;2.07;;
64799;SDS011;51233;51.982;4.594;2024-03-23T10:44:35;6.67;;;2.17;;
64799;SDS011;51233;51.982;4.594;2024-03-23T10:47:36;6.70;;;2.10;;
64799;SDS011;51233;51.982;4.594;2024-03-23T10:50:36;5.67;;;1.87;;
64799;SDS011;51233;51.982;4.594;2024-03-23T10:53:36;7.23;;;1.83;;
64799;SDS011;51233;51.982;4.594;2024-03-23T10:56:37;6.10;;;1.87;;
64799;SDS011;51233;51.982;4.594;2024-03-23T10:59:38;7.30;;;2.22;;
64799;SDS011;51233;51.982;4.594;2024-03-23T11:02:39;5.87;;;1.80;;
64799;SDS011;51233;51.982;4.594;2024-03-23T11:05:46;10.13;;;2.25;;
64799;SDS011;51233;51.982;4.594;2024-03-23T11:08:46;6.45;;;2.03;;
64799;SDS011;51233;51.982;4.594;2024-03-23T11:11:46;8.17;;;2.57;;
64799;SDS011;51233;51.982;4.594;2024-03-23T11:14:46;6.97;;;2.20;;
64799;SDS011;51233;51.982;4.594;2024-03-23T11:18:02;5.63;;;1.60;;
64799;SDS011;51233;51.982;4.594;2024-03-23T11:21:02;7.13;;;2.03;;
64799;SDS011;51233;51.982;4.594;2024-03-23T11:24:13;8.67;;;1.87;;
64799;SDS011;51233;51.982;4.594;2024-03-23T11:27:16;7.03;;;1.60;;
64799;SDS011;51233;51.982;4.594;2024-03-23T11:30:23;6.00;;;2.25;;
64799;SDS011;51233;51.982;4.594;2024-03-23T11:33:23;7.57;;;2.20;;
64799;SDS011;51233;51.982;4.594;2024-03-23T11:36:24;8.37;;;2.30;;
64799;SDS011;51233;51.982;4.594;2024-03-23T11:39:24;8.50;;;2.13;;
64799;SDS011;51233;51.982;4.594;2024-03-23T11:42:24;8.30;;;2.10;;
64799;SDS011;51233;51.982;4.594;2024-03-23T11:45:24;13.00;;;2.50;;
64799;SDS011;51233;51.982;4.594;2024-03-23T11:48:25;10.23;;;2.30;;
64799;SDS011;51233;51.982;4.594;2024-03-23T11:51:27;7.82;;;2.33;;
64799;SDS011;51233;51.982;4.594;2024-03-23T11:54:27;5.57;;;2.20;;
64799;SDS011;51233;51.982;4.594;2024-03-23T11:57:27;7.30;;;2.20;;
64799;SDS011;51233;51.982;4.594;2024-03-23T12:00:27;12.07;;;2.70;;
64799;SDS011;51233;51.982;4.594;2024-03-23T12:06:29;3.60;;;1.33;;
64799;SDS011;51233;51.982;4.594;2024-03-23T12:09:30;5.00;;;2.00;;
64799;SDS011;51233;51.982;4.594;2024-03-23T12:12:30;7.77;;;2.43;;
64799;SDS011;51233;51.982;4.594;2024-03-23T12:15:30;7.60;;;2.17;;
64799;SDS011;51233;51.982;4.594;2024-03-23T12:18:30;8.57;;;2.27;;
64799;SDS011;51233;51.982;4.594;2024-03-23T12:21:30;5.17;;;1.63;;
64799;SDS011;51233;51.982;4.594;2024-03-23T12:24:31;4.35;;;1.80;;
64799;SDS011;51233;51.982;4.594;2024-03-23T12:27:31;11.80;;;2.10;;
64799;SDS011;51233;51.982;4.594;2024-03-23T12:30:40;8.40;;;1.88;;
64799;SDS011;51233;51.982;4.594;2024-03-23T12:33:41;13.73;;;2.45;;
64799;SDS011;51233;51.982;4.594;2024-03-23T12:36:41;4.00;;;1.80;;
64799;SDS011;51233;51.982;4.594;2024-03-23T12:39:41;2.80;;;1.05;;
64799;SDS011;51233;51.982;4.594;2024-03-23T12:42:41;2.65;;;0.85;;
64799;SDS011;51233;51.982;4.594;2024-03-23T12:45:45;3.10;;;1.27;;
64799;SDS011;51233;51.982;4.594;2024-03-23T12:48:46;3.13;;;1.02;;
64799;SDS011;51233;51.982;4.594;2024-03-23T12:51:48;3.17;;;0.90;;
64799;SDS011;51233;51.982;4.594;2024-03-23T12:54:52;6.28;;;1.50;;
64799;SDS011;51233;51.982;4.594;2024-03-23T12:57:53;9.30;;;2.13;;
64799;SDS011;51233;51.982;4.594;2024-03-23T13:00:53;6.10;;;1.80;;
64799;SDS011;51233;51.982;4.594;2024-03-23T13:03:53;8.18;;;2.25;;
64799;SDS011;51233;51.982;4.594;2024-03-23T13:06:53;1.90;;;1.07;;
64799;SDS011;51233;51.982;4.594;2024-03-23T13:09:53;3.87;;;1.13;;
64799;SDS011;51233;51.982;4.594;2024-03-23T13:12:54;7.67;;;1.63;;
64799;SDS011;51233;51.982;4.594;2024-03-23T13:15:54;6.65;;;1.88;;
64799;SDS011;51233;51.982;4.594;2024-03-23T13:18:54;5.43;;;1.88;;
64799;SDS011;51233;51.982;4.594;2024-03-23T13:21:54;4.43;;;1.30;;
64799;SDS011;51233;51.982;4.594;2024-03-23T13:24:55;6.10;;;1.70;;
64799;SDS011;51233;51.982;4.594;2024-03-23T13:27:55;8.82;;;2.03;;
64799;SDS011;51233;51.982;4.594;2024-03-23T13:30:56;5.93;;;1.37;;
64799;SDS011;51233;51.982;4.594;2024-03-23T13:33:56;6.50;;;1.87;;
64799;SDS011;51233;51.982;4.594;2024-03-23T13:36:56;9.63;;;1.83;;
64799;SDS011;51233;51.982;4.594;2024-03-23T13:39:59;6.07;;;1.42;;
64799;SDS011;51233;51.982;4.594;2024-03-23T13:43:00;6.37;;;1.47;;
64799;SDS011;51233;51.982;4.594;2024-03-23T13:46:00;9.63;;;1.83;;
64799;SDS011;51233;51.982;4.594;2024-03-23T13:49:01;6.13;;;1.70;;
64799;SDS011;51233;51.982;4.594;2024-03-23T13:52:01;5.60;;;2.00;;
64799;SDS011;51233;51.982;4.594;2024-03-23T13:55:02;5.27;;;1.53;;
64799;SDS011;51233;51.982;4.594;2024-03-23T13:58:02;5.07;;;1.70;;
64799;SDS011;51233;51.982;4.594;2024-03-23T14:01:02;3.37;;;1.20;;
64799;SDS011;51233;51.982;4.594;2024-03-23T14:04:03;1.87;;;0.90;;
64799;SDS011;51233;51.982;4.594;2024-03-23T14:07:03;4.03;;;0.93;;
64799;SDS011;51233;51.982;4.594;2024-03-23T14:10:03;1.63;;;0.63;;
64799;SDS011;51233;51.982;4.594;2024-03-23T14:13:05;3.95;;;1.40;;
64799;SDS011;51233;51.982;4.594;2024-03-23T14:16:05;2.95;;;1.10;;
64799;SDS011;51233;51.982;4.594;2024-03-23T14:19:05;5.57;;;1.10;;
64799;SDS011;51233;51.982;4.594;2024-03-23T14:22:06;3.17;;;1.20;;
64799;SDS011;51233;51.982;4.594;2024-03-23T14:25:06;3.97;;;1.10;;
64799;SDS011;51233;51.982;4.594;2024-03-23T14:28:06;1.37;;;0.80;;
64799;SDS011;51233;51.982;4.594;2024-03-23T14:31:13;4.78;;;1.63;;
64799;SDS011;51233;51.982;4.594;2024-03-23T14:34:13;4.68;;;1.30;;
64799;SDS011;51233;51.982;4.594;2024-03-23T14:37:13;6.32;;;1.55;;
64799;SDS011;51233;51.982;4.594;2024-03-23T14:40:15;9.20;;;1.42;;
64799;SDS011;51233;51.982;4.594;2024-03-23T14:43:15;5.43;;;1.70;;
64799;SDS011;51233;51.982;4.594;2024-03-23T14:46:16;9.17;;;1.80;;
64799;SDS011;51233;51.982;4.594;2024-03-23T14:49:16;10.93;;;2.13;;
64799;SDS011;51233;51.982;4.594;2024-03-23T14:52:17;12.10;;;2.47;;
64799;SDS011;51233;51.982;4.594;2024-03-23T14:55:18;8.20;;;2.03;;
64799;SDS011;51233;51.982;4.594;2024-03-23T14:58:19;6.37;;;2.00;;
64799;SDS011;51233;51.982;4.594;2024-03-23T15:01:19;8.63;;;1.83;;
64799;SDS011;51233;51.982;4.594;2024-03-23T15:04:20;3.38;;;1.20;;
64799;SDS011;51233;51.982;4.594;2024-03-23T15:07:20;5.73;;;1.30;;
64799;SDS011;51233;51.982;4.594;2024-03-23T15:10:21;3.33;;;1.10;;
64799;SDS011;51233;51.982;4.594;2024-03-23T15:13:21;4.10;;;1.20;;
64799;SDS011;51233;51.982;4.594;2024-03-23T15:16:24;5.20;;;1.60;;
64799;SDS011;51233;51.982;4.594;2024-03-23T15:19:24;1.00;;;0.63;;
64799;SDS011;51233;51.982;4.594;2024-03-23T15:22:24;8.27;;;1.80;;
64799;SDS011;51233;51.982;4.594;2024-03-23T15:25:24;2.30;;;1.30;;
64799;SDS011;51233;51.982;4.594;2024-03-23T15:28:25;3.77;;;1.27;;
64799;SDS011;51233;51.982;4.594;2024-03-23T15:31:38;4.13;;;1.25;;
64799;SDS011;51233;51.982;4.594;2024-03-23T15:34:38;3.83;;;1.10;;
64799;SDS011;51233;51.982;4.594;2024-03-23T15:37:38;5.03;;;1.40;;
64799;SDS011;51233;51.982;4.594;2024-03-23T15:40:39;5.97;;;1.60;;
64799;SDS011;51233;51.982;4.594;2024-03-23T15:43:39;3.88;;;1.50;;
64799;SDS011;51233;51.982;4.594;2024-03-23T15:46:39;2.63;;;1.10;;
64799;SDS011;51233;51.982;4.594;2024-03-23T15:49:39;2.87;;;0.87;;
64799;SDS011;51233;51.982;4.594;2024-03-23T15:52:40;2.60;;;1.13;;
64799;SDS011;51233;51.982;4.594;2024-03-23T15:55:40;4.28;;;1.45;;
64799;SDS011;51233;51.982;4.594;2024-03-23T15:58:40;2.47;;;1.23;;
64799;SDS011;51233;51.982;4.594;2024-03-23T16:01:41;3.73;;;1.10;;
64799;SDS011;51233;51.982;4.594;2024-03-23T16:04:43;3.38;;;1.35;;
64799;SDS011;51233;51.982;4.594;2024-03-23T16:07:45;4.38;;;1.60;;
64799;SDS011;51233;51.982;4.594;2024-03-23T16:10:45;6.67;;;1.50;;
64799;SDS011;51233;51.982;4.594;2024-03-23T16:13:45;2.27;;;0.90;;
64799;SDS011;51233;51.982;4.594;2024-03-23T16:16:46;4.50;;;1.10;;
64799;SDS011;51233;51.982;4.594;2024-03-23T16:19:47;6.23;;;1.37;;
64799;SDS011;51233;51.982;4.594;2024-03-23T16:22:47;3.75;;;1.27;;
64799;SDS011;51233;51.982;4.594;2024-03-23T16:25:48;3.43;;;1.13;;
64799;SDS011;51233;51.982;4.594;2024-03-23T16:28:55;4.10;;;1.40;;
64799;SDS011;51233;51.982;4.594;2024-03-23T16:31:55;5.05;;;1.35;;
64799;SDS011;51233;51.982;4.594;2024-03-23T16:34:55;7.17;;;1.30;;
64799;SDS011;51233;51.982;4.594;2024-03-23T16:37:56;3.03;;;0.90;;
64799;SDS011;51233;51.982;4.594;2024-03-23T16:40:56;3.08;;;1.20;;
64799;SDS011;51233;51.982;4.594;2024-03-23T16:43:57;4.35;;;1.63;;
64799;SDS011;51233;51.982;4.594;2024-03-23T16:46:57;4.10;;;1.43;;
64799;SDS011;51233;51.982;4.594;2024-03-23T16:49:57;4.15;;;1.48;;
64799;SDS011;51233;51.982;4.594;2024-03-23T16:52:59;2.65;;;0.95;;
64799;SDS011;51233;51.982;4.594;2024-03-23T16:56:03;6.80;;;1.10;;
64799;SDS011;51233;51.982;4.594;2024-03-23T16:59:03;6.43;;;1.33;;
64799;SDS011;51233;51.982;4.594;2024-03-23T17:02:04;1.37;;;0.73;;
64799;SDS011;51233;51.982;4.594;2024-03-23T17:05:05;1.67;;;0.70;;
64799;SDS011;51233;51.982;4.594;2024-03-23T17:08:06;2.80;;;1.30;;
64799;SDS011;51233;51.982;4.594;2024-03-23T17:11:06;1.50;;;0.70;;
64799;SDS011;51233;51.982;4.594;2024-03-23T17:14:07;3.67;;;1.23;;
64799;SDS011;51233;51.982;4.594;2024-03-23T17:17:07;4.73;;;1.70;;
64799;SDS011;51233;51.982;4.594;2024-03-23T17:20:07;5.60;;;1.33;;
64799;SDS011;51233;51.982;4.594;2024-03-23T17:23:10;3.22;;;1.20;;
64799;SDS011;51233;51.982;4.594;2024-03-23T17:26:10;5.20;;;1.60;;
64799;SDS011;51233;51.982;4.594;2024-03-23T17:32:12;6.68;;;1.65;;
64799;SDS011;51233;51.982;4.594;2024-03-23T17:35:12;4.47;;;1.52;;
64799;SDS011;51233;51.982;4.594;2024-03-23T17:38:13;6.30;;;1.58;;
64799;SDS011;51233;51.982;4.594;2024-03-23T17:41:13;5.10;;;1.75;;
64799;SDS011;51233;51.982;4.594;2024-03-23T17:44:13;6.60;;;1.60;;
64799;SDS011;51233;51.982;4.594;2024-03-23T17:47:13;7.55;;;1.85;;
64799;SDS011;51233;51.982;4.594;2024-03-23T17:50:14;7.35;;;1.70;;
64799;SDS011;51233;51.982;4.594;2024-03-23T17:53:14;5.53;;;1.30;;
64799;SDS011;51233;51.982;4.594;2024-03-23T17:56:15;4.83;;;1.30;;
64799;SDS011;51233;51.982;4.594;2024-03-23T17:59:15;5.95;;;1.33;;
64799;SDS011;51233;51.982;4.594;2024-03-23T18:02:15;3.67;;;1.20;;
64799;SDS011;51233;51.982;4.594;2024-03-23T18:05:16;4.10;;;1.30;;
64799;SDS011;51233;51.982;4.594;2024-03-23T18:08:19;2.53;;;1.08;;
64799;SDS011;51233;51.982;4.594;2024-03-23T18:11:19;4.03;;;0.93;;
64799;SDS011;51233;51.982;4.594;2024-03-23T18:14:19;3.15;;;1.13;;
64799;SDS011;51233;51.982;4.594;2024-03-23T18:17:19;3.80;;;0.80;;
64799;SDS011;51233;51.982;4.594;2024-03-23T18:20:20;3.17;;;1.38;;
64799;SDS011;51233;51.982;4.594;2024-03-23T18:23:21;3.23;;;1.00;;
64799;SDS011;51233;51.982;4.594;2024-03-23T18:26:21;2.80;;;1.10;;
64799;SDS011;51233;51.982;4.594;2024-03-23T18:29:22;3.27;;;1.10;;
64799;SDS011;51233;51.982;4.594;2024-03-23T18:32:22;3.25;;;1.00;;
64799;SDS011;51233;51.982;4.594;2024-03-23T18:35:22;6.55;;;1.77;;
64799;SDS011;51233;51.982;4.594;2024-03-23T18:38:22;5.63;;;1.60;;
64799;SDS011;51233;51.982;4.594;2024-03-23T18:41:23;6.13;;;1.50;;
64799;SDS011;51233;51.982;4.594;2024-03-23T18:44:23;2.40;;;1.00;;
64799;SDS011;51233;51.982;4.594;2024-03-23T18:47:23;5.90;;;1.52;;
64799;SDS011;51233;51.982;4.594;2024-03-23T18:50:23;4.35;;;1.10;;
64799;SDS011;51233;51.982;4.594;2024-03-23T18:53:23;4.05;;;1.23;;
64799;SDS011;51233;51.982;4.594;2024-03-23T18:56:23;9.40;;;1.37;;
64799;SDS011;51233;51.982;4.594;2024-03-23T18:59:24;3.42;;;1.30;;
64799;SDS011;51233;51.982;4.594;2024-03-23T19:02:25;6.27;;;1.67;;
64799;SDS011;51233;51.982;4.594;2024-03-23T19:05:25;3.88;;;1.52;;